createdAt,value
2019-03-28T06:19:50.042Z,19.10
2019-03-28T06:22:18.479Z,19.20
2019-03-28T06:24:47.029Z,19.20
2019-03-28T06:27:15.426Z,19.20
2019-03-28T06:29:43.843Z,19.30
2019-03-28T06:32:12.255Z,19.30
2019-03-28T06:34:40.722Z,19.30
2019-03-28T06:37:09.119Z,19.30
2019-03-28T06:39:37.580Z,19.30
2019-03-28T06:42:05.983Z,19.30
2019-03-28T06:44:34.391Z,19.30
2019-03-28T06:47:02.879Z,19.40
2019-03-28T06:49:31.306Z,19.40
2019-03-28T06:51:59.722Z,19.30
2019-03-28T06:54:28.129Z,19.30
2019-03-28T06:56:56.576Z,19.30
2019-03-28T06:59:36.772Z,19.30
2019-03-28T07:01:56.849Z,19.30
2019-03-28T07:04:25.276Z,19.40
2019-03-28T07:06:53.694Z,19.40
2019-03-28T07:09:22.127Z,19.40
2019-03-28T07:11:50.538Z,19.40
2019-03-28T07:14:19.025Z,19.50
2019-03-28T07:16:47.511Z,19.50
2019-03-28T07:19:15.936Z,19.50
2019-03-28T07:21:44.396Z,19.50
2019-03-28T07:24:12.985Z,19.50
2019-03-28T07:26:41.398Z,19.50
2019-03-28T07:29:09.818Z,19.50
2019-03-28T07:31:38.268Z,19.50
2019-03-28T07:34:06.678Z,19.50
2019-03-28T07:36:35.093Z,19.50
2019-03-28T07:39:04.815Z,19.60
2019-03-28T07:41:33.219Z,19.60
2019-03-28T07:44:01.644Z,19.60
2019-03-28T07:46:30.384Z,19.60
2019-03-28T07:48:58.793Z,19.60
2019-03-28T07:51:27.684Z,19.60
2019-03-28T07:53:56.247Z,19.60
2019-03-28T07:56:24.672Z,19.60
2019-03-28T07:58:53.486Z,19.70
2019-03-28T08:01:21.927Z,19.70
2019-03-28T08:03:50.343Z,19.60
2019-03-28T08:06:18.759Z,19.70
2019-03-28T08:08:47.191Z,19.70
2019-03-28T08:11:15.656Z,19.70
2019-03-28T08:13:44.128Z,19.70
2019-03-28T08:16:12.567Z,19.70
2019-03-28T08:18:40.982Z,19.70
2019-03-28T08:21:09.395Z,19.60
2019-03-28T08:23:37.831Z,19.60
2019-03-28T08:26:06.243Z,19.60
2019-03-28T08:28:34.745Z,19.70
2019-03-28T08:31:03.207Z,19.70
2019-03-28T08:33:31.863Z,19.70
2019-03-28T08:36:00.284Z,19.80
2019-03-28T08:38:28.709Z,19.70
2019-03-28T08:40:57.121Z,19.80
2019-03-28T08:43:25.526Z,19.80
2019-03-28T08:45:53.967Z,19.80
2019-03-28T08:48:22.382Z,19.80
2019-03-28T08:50:50.804Z,19.80
2019-03-28T08:53:19.249Z,19.80
2019-03-28T08:55:47.663Z,19.80
2019-03-28T08:58:16.080Z,19.80
2019-03-28T09:03:30.939Z,19.80
2019-03-28T09:05:59.384Z,19.80
2019-03-28T09:08:27.787Z,19.90
2019-03-28T09:10:56.255Z,19.90
2019-03-28T09:13:24.727Z,19.90
2019-03-28T09:15:53.162Z,19.90
2019-03-28T09:21:07.372Z,19.90
2019-03-28T09:23:35.754Z,19.90
2019-03-28T09:26:04.690Z,19.70
2019-03-28T09:28:33.549Z,19.70
2019-03-28T09:31:01.931Z,19.70
2019-03-28T09:33:30.447Z,19.80
2019-03-28T09:35:59.442Z,19.80
2019-03-28T09:38:27.772Z,19.90
2019-03-28T09:40:56.161Z,19.90
2019-03-28T09:43:24.594Z,19.90
2019-03-28T09:45:52.989Z,19.90
2019-03-28T09:48:21.363Z,19.90
2019-03-28T09:50:49.794Z,19.90
2019-03-28T09:53:18.182Z,19.90
2019-03-28T09:55:46.614Z,19.90
2019-03-28T09:58:15.014Z,19.90
2019-03-28T10:00:43.410Z,19.90
2019-03-28T10:03:11.792Z,19.90
2019-03-28T10:05:40.290Z,19.90
2019-03-28T10:08:08.684Z,20.00
2019-03-28T10:10:37.074Z,20.00
2019-03-28T10:13:05.855Z,20.00
2019-03-28T10:15:36.763Z,20.00
2019-03-28T10:18:04.262Z,20.00
2019-03-28T10:20:33.964Z,20.00
2019-03-28T10:23:02.346Z,20.00
2019-03-28T10:25:30.796Z,20.00
2019-03-28T10:27:59.219Z,20.00
2019-03-28T10:30:41.602Z,20.00
2019-03-28T10:33:10.043Z,20.00
2019-03-28T10:35:38.426Z,20.00
2019-03-28T10:38:06.820Z,20.00
2019-03-28T10:40:36.345Z,20.00
2019-03-28T10:43:04.930Z,20.00
2019-03-28T10:45:33.698Z,20.10
2019-03-28T10:48:02.229Z,20.10
2019-03-28T10:50:40.868Z,20.10
2019-03-28T10:53:00.658Z,20.10
2019-03-28T10:55:29.091Z,20.10
2019-03-28T10:57:58.521Z,20.10
2019-03-28T11:00:26.972Z,20.10
2019-03-28T11:02:55.427Z,20.10
2019-03-28T11:05:23.782Z,20.10
2019-03-28T11:07:52.170Z,20.10
2019-03-28T11:10:20.634Z,20.10
2019-03-28T11:12:49.018Z,20.10
2019-03-28T11:15:17.330Z,20.10
2019-03-28T11:17:45.777Z,20.20
2019-03-28T11:20:14.170Z,20.20
2019-03-28T11:22:42.575Z,20.20
2019-03-28T11:25:11.375Z,20.20
2019-03-28T11:27:39.765Z,20.20
2019-03-28T11:30:08.522Z,20.20
2019-03-28T11:32:36.954Z,20.20
2019-03-28T11:35:09.382Z,20.20
2019-03-28T11:37:37.782Z,20.30
2019-03-28T11:40:09.614Z,20.30
2019-03-28T11:42:38.098Z,20.20
2019-03-28T11:45:09.320Z,20.10
2019-03-28T11:47:37.306Z,20.10
2019-03-28T11:50:07.490Z,20.10
2019-03-28T11:52:36.054Z,20.10
2019-03-28T11:55:06.210Z,20.10
2019-03-28T11:57:34.974Z,20.10
2019-03-28T12:00:05.643Z,20.10
2019-03-28T12:02:34.075Z,20.00
2019-03-28T12:05:02.585Z,20.00
2019-03-28T12:07:30.970Z,20.00
2019-03-28T12:09:59.425Z,20.00
2019-03-28T12:12:27.796Z,20.00
2019-03-28T12:14:56.186Z,20.00
2019-03-28T12:17:24.606Z,20.00
2019-03-28T12:19:52.999Z,20.00
2019-03-28T12:22:21.386Z,20.00
2019-03-28T12:24:49.830Z,19.90
2019-03-28T12:27:18.231Z,19.90
2019-03-28T12:29:46.614Z,19.90
2019-03-28T12:32:15.055Z,19.90
2019-03-28T12:34:43.439Z,19.90
2019-03-28T12:37:11.830Z,19.90
2019-03-28T12:39:40.338Z,19.90
2019-03-28T12:42:08.764Z,19.90
2019-03-28T12:44:37.158Z,19.90
2019-03-28T12:47:05.602Z,19.90
2019-03-28T12:49:33.997Z,19.90
2019-03-28T12:52:02.378Z,19.90
2019-03-28T12:54:30.812Z,19.90
2019-03-28T12:56:59.210Z,19.90
2019-03-28T12:59:27.605Z,19.90
2019-03-28T13:01:56.875Z,19.90
2019-03-28T13:04:25.262Z,19.90
2019-03-28T13:06:53.645Z,20.00
2019-03-28T13:09:22.104Z,19.90
2019-03-28T13:11:50.497Z,20.00
2019-03-28T13:14:18.876Z,20.00
2019-03-28T13:16:47.310Z,20.00
2019-03-28T13:19:15.706Z,20.00
2019-03-28T13:21:45.595Z,20.00
2019-03-28T13:24:13.918Z,20.00
2019-03-28T13:26:42.214Z,20.10
2019-03-28T13:29:10.584Z,20.00
2019-03-28T13:31:39.174Z,20.00
2019-03-28T13:34:07.591Z,20.00
2019-03-28T13:36:36.003Z,20.10
2019-03-28T13:39:06.285Z,20.10
2019-03-28T13:41:34.701Z,20.10
2019-03-28T13:44:03.104Z,20.20
2019-03-28T13:46:32.555Z,20.20
2019-03-28T13:49:01.073Z,20.30
2019-03-28T13:51:29.482Z,20.40
2019-03-28T13:53:57.933Z,20.30
2019-03-28T13:56:26.349Z,20.30
2019-03-28T13:58:54.766Z,20.30
2019-03-28T14:01:26.111Z,20.30
2019-03-28T14:03:53.278Z,20.20
2019-03-28T14:06:21.718Z,20.20
2019-03-28T14:08:50.164Z,20.20
2019-03-28T14:11:18.582Z,20.20
2019-03-28T14:13:47.550Z,20.20
2019-03-28T14:16:16.144Z,20.30
2019-03-28T14:18:44.559Z,20.20
2019-03-28T14:21:13.441Z,20.20
2019-03-28T14:23:41.882Z,20.20
2019-03-28T14:26:10.293Z,20.20
2019-03-28T14:28:38.705Z,20.20
2019-03-28T14:31:07.591Z,20.30
2019-03-28T14:33:36.935Z,20.30
2019-03-28T14:36:05.482Z,20.30
2019-03-28T14:38:37.256Z,20.40
2019-03-28T14:41:04.747Z,20.50
2019-03-28T14:43:33.162Z,20.50
2019-03-28T14:46:01.599Z,20.40
2019-03-28T14:48:30.020Z,20.40
2019-03-28T14:50:58.439Z,20.40
2019-03-28T14:53:26.878Z,20.40
2019-03-28T14:55:55.288Z,20.40
2019-03-28T14:58:23.693Z,20.40
2019-03-28T15:00:53.178Z,20.30
2019-03-28T15:03:26.689Z,20.30
2019-03-28T15:05:52.015Z,20.30
2019-03-28T15:08:20.463Z,20.30
2019-03-28T15:10:48.868Z,20.30
2019-03-28T15:13:17.297Z,20.30
2019-03-28T15:15:45.728Z,20.30
2019-03-28T15:18:14.140Z,20.30
2019-03-28T15:20:42.553Z,20.30
2019-03-28T15:23:11.006Z,20.40
2019-03-28T15:25:39.409Z,20.40
2019-03-28T15:28:07.836Z,20.40
2019-03-28T15:30:36.290Z,20.40
2019-03-28T15:33:04.714Z,20.40
2019-03-28T15:35:33.118Z,20.40
2019-03-28T15:38:01.557Z,20.40
2019-03-28T15:40:29.971Z,20.40
2019-03-28T15:42:58.386Z,20.40
2019-03-28T15:45:26.901Z,20.40
2019-03-28T15:47:55.317Z,20.40
2019-03-28T15:50:23.719Z,20.40
2019-03-28T15:52:52.174Z,20.40
2019-03-28T15:55:20.943Z,20.40
2019-03-28T15:57:49.353Z,20.40
2019-03-28T16:00:17.791Z,20.50
2019-03-28T16:02:46.236Z,20.50
2019-03-28T16:05:14.649Z,20.50
2019-03-28T16:07:43.087Z,20.50
2019-03-28T16:10:14.610Z,20.50
2019-03-28T16:12:41.556Z,20.50
2019-03-28T16:15:09.996Z,20.50
2019-03-28T16:17:38.406Z,20.50
2019-03-28T16:20:06.828Z,20.40
2019-03-28T16:22:35.263Z,20.50
2019-03-28T16:25:04.815Z,20.50
2019-03-28T16:27:33.254Z,20.50
2019-03-28T16:30:01.685Z,20.50
2019-03-28T16:32:30.103Z,20.50
2019-03-28T16:34:58.513Z,20.50
2019-03-28T16:37:27.707Z,20.50
2019-03-28T16:39:56.360Z,20.50
2019-03-28T16:42:24.772Z,20.60
2019-03-28T16:44:53.208Z,20.60
2019-03-28T16:47:21.636Z,20.60
2019-03-28T16:49:50.041Z,20.50
2019-03-28T16:52:18.482Z,20.50
2019-03-28T16:54:46.921Z,20.60
2019-03-28T16:57:15.328Z,20.70
2019-03-28T16:59:43.767Z,20.70
2019-03-28T17:02:12.182Z,20.70
2019-03-28T17:04:40.589Z,20.80
2019-03-28T17:07:09.029Z,20.70
2019-03-28T17:09:39.151Z,20.70
2019-03-28T17:12:07.658Z,20.90
2019-03-28T17:14:36.098Z,20.70
2019-03-28T17:17:04.521Z,20.70
2019-03-28T17:19:32.932Z,20.70
2019-03-28T17:22:01.367Z,20.70
2019-03-28T17:24:29.776Z,20.70
2019-03-28T17:26:58.191Z,20.60
2019-03-28T17:29:26.645Z,20.60
2019-03-28T17:31:55.060Z,20.60
2019-03-28T17:34:34.158Z,20.60
2019-03-28T17:36:53.657Z,20.50
2019-03-28T17:39:22.103Z,20.60
2019-03-28T17:41:50.639Z,20.60
2019-03-28T17:44:20.268Z,20.60
2019-03-28T17:46:48.690Z,20.60
2019-03-28T17:49:17.134Z,20.60
2019-03-28T17:51:45.622Z,20.50
2019-03-28T17:54:14.078Z,20.50
2019-03-28T17:56:42.542Z,20.50
2019-03-28T17:59:11.010Z,20.50
2019-03-28T18:01:39.414Z,20.40
2019-03-28T18:04:08.033Z,20.40
2019-03-28T18:06:36.443Z,20.30
2019-03-28T18:09:06.839Z,20.30
2019-03-28T18:11:35.255Z,20.30
2019-03-28T18:14:03.877Z,20.30
2019-03-28T18:16:32.286Z,20.30
2019-03-28T18:19:00.708Z,20.20
2019-03-28T18:21:29.176Z,20.20
2019-03-28T18:23:57.610Z,20.20
2019-03-28T18:26:26.015Z,20.20
2019-03-28T18:28:54.937Z,20.20
2019-03-28T18:31:23.344Z,20.20
2019-03-28T18:33:51.762Z,20.10
2019-03-28T18:36:20.200Z,20.10
2019-03-28T18:38:48.612Z,20.10
2019-03-28T18:41:17.094Z,20.10
2019-03-28T18:43:45.535Z,20.00
2019-03-28T18:46:14.900Z,20.10
2019-03-28T18:48:43.466Z,20.00
2019-03-28T18:51:12.231Z,20.00
2019-03-28T18:53:40.639Z,20.00
2019-03-28T18:56:09.054Z,20.00
2019-03-28T18:58:37.500Z,19.90
2019-03-28T19:01:05.908Z,19.90
2019-03-28T19:03:34.327Z,19.90
2019-03-28T19:06:02.767Z,19.90
2019-03-28T19:08:31.180Z,19.90
2019-03-28T19:10:59.583Z,19.90
2019-03-28T19:13:28.027Z,19.90
2019-03-28T19:15:56.446Z,19.90
2019-03-28T19:18:25.104Z,19.80
2019-03-28T19:20:54.134Z,19.80
2019-03-28T19:23:22.556Z,19.80
2019-03-28T19:25:50.975Z,19.80
2019-03-28T19:28:28.664Z,19.80
2019-03-28T19:30:49.479Z,19.80
2019-03-28T19:33:17.896Z,19.80
2019-03-28T19:35:46.345Z,19.70
2019-03-28T19:38:14.750Z,19.80
2019-03-28T19:40:43.166Z,19.70
2019-03-28T19:43:20.484Z,19.70
2019-03-28T19:45:41.663Z,19.70
2019-03-28T19:48:10.149Z,19.70
2019-03-28T19:50:38.596Z,19.70
2019-03-28T19:53:07.007Z,19.70
2019-03-28T19:55:35.422Z,19.70
2019-03-28T19:58:04.861Z,19.60
2019-03-28T20:00:33.583Z,19.60
2019-03-28T20:03:02.504Z,19.60
2019-03-28T20:05:31.247Z,19.60
2019-03-28T20:07:59.662Z,19.60
2019-03-28T20:10:28.079Z,19.60
2019-03-28T20:12:57.590Z,19.60
2019-03-28T20:15:26.254Z,19.60
2019-03-28T20:17:55.294Z,19.50
2019-03-28T20:20:23.736Z,19.50
2019-03-28T20:22:52.150Z,19.50
2019-03-28T20:25:20.563Z,19.50
2019-03-28T20:27:49.729Z,19.50
2019-03-28T20:30:18.647Z,19.50
2019-03-28T20:32:47.056Z,19.50
2019-03-28T20:35:15.499Z,19.50
2019-03-28T20:37:43.916Z,19.50
2019-03-28T20:40:13.958Z,19.50
2019-03-28T20:42:42.400Z,19.50
2019-03-28T20:45:11.172Z,19.50
2019-03-28T20:47:39.588Z,19.50
2019-03-28T20:50:08.019Z,19.40
2019-03-28T20:52:36.430Z,19.40
2019-03-28T20:55:07.453Z,19.40
2019-03-28T20:57:35.992Z,19.40
2019-03-28T21:00:08.515Z,19.40
2019-03-28T21:02:35.905Z,19.40
2019-03-28T21:05:06.764Z,19.40
2019-03-28T21:07:35.174Z,19.40
2019-03-28T21:10:04.435Z,19.40
2019-03-28T21:12:32.884Z,19.30
2019-03-28T21:15:01.294Z,19.30
2019-03-28T21:17:32.153Z,19.30
2019-03-28T21:19:59.808Z,19.30
2019-03-28T21:22:28.222Z,19.30
2019-03-28T21:24:56.790Z,19.30
2019-03-28T21:27:25.184Z,19.30
2019-03-28T21:29:53.587Z,19.30
2019-03-28T21:32:22.007Z,19.30
2019-03-28T21:34:50.459Z,19.30
2019-03-28T21:37:18.867Z,19.30
2019-03-28T21:39:47.284Z,19.20
2019-03-28T21:42:15.747Z,19.20
2019-03-28T21:44:44.158Z,19.20
2019-03-28T21:47:12.582Z,19.20
2019-03-28T21:49:41.006Z,19.20
2019-03-28T21:52:09.439Z,19.20
2019-03-28T21:54:37.852Z,19.20
2019-03-28T21:57:06.283Z,19.20
2019-03-28T21:59:34.696Z,19.20
2019-03-28T22:02:03.110Z,19.20
2019-03-28T22:04:31.566Z,19.20
2019-03-28T22:06:59.974Z,19.20
2019-03-28T22:09:28.478Z,19.20
2019-03-28T22:12:00.465Z,19.20
2019-03-28T22:14:27.374Z,19.20
2019-03-28T22:16:55.787Z,19.20
2019-03-28T22:19:24.250Z,19.10
2019-03-28T22:21:52.670Z,19.10
2019-03-28T22:24:21.087Z,19.10
2019-03-28T22:26:49.539Z,19.10
2019-03-28T22:29:17.982Z,19.10
2019-03-28T22:31:46.395Z,19.10
2019-03-28T22:34:14.837Z,19.10
2019-03-28T22:36:56.213Z,19.10
2019-03-28T22:39:13.303Z,19.10
2019-03-28T22:41:41.742Z,19.10
2019-03-28T22:44:10.256Z,19.10
2019-03-28T22:46:39.773Z,19.00
2019-03-28T22:49:08.425Z,19.10
2019-03-28T22:51:36.843Z,19.10
2019-03-28T22:54:05.326Z,19.10
2019-03-28T22:56:33.766Z,19.10
2019-03-28T22:59:02.190Z,19.00
2019-03-28T23:01:30.613Z,19.00
2019-03-28T23:03:59.054Z,19.00
2019-03-28T23:06:27.468Z,19.10
2019-03-28T23:08:55.890Z,19.10
2019-03-28T23:11:24.327Z,19.10
2019-03-28T23:13:52.918Z,19.10
2019-03-28T23:16:21.551Z,19.10
2019-03-28T23:18:49.996Z,19.10
2019-03-28T23:21:18.409Z,19.00
2019-03-28T23:23:46.823Z,19.10
2019-03-28T23:26:15.267Z,19.00
2019-03-28T23:28:44.206Z,19.10
2019-03-28T23:31:13.190Z,19.00
2019-03-28T23:33:41.629Z,19.00
2019-03-28T23:36:10.047Z,19.00
2019-03-28T23:38:38.467Z,19.10
2019-03-28T23:41:06.912Z,19.00
2019-03-28T23:43:35.849Z,19.00
2019-03-28T23:46:04.548Z,19.00
2019-03-28T23:48:32.987Z,19.00
2019-03-28T23:51:01.406Z,19.00
2019-03-28T23:53:29.830Z,19.10
2019-03-28T23:55:58.271Z,19.00
2019-03-28T23:58:26.686Z,19.00
